createdAt,value
2018-08-28T00:00:26.806Z,66.49
2018-08-28T00:02:56.433Z,66.14
2018-08-28T00:05:26.067Z,67.08
2018-08-28T00:07:55.746Z,67.38
2018-08-28T00:10:25.412Z,69.19
2018-08-28T00:12:55.163Z,68.79
2018-08-28T00:15:24.931Z,68.38
2018-08-28T00:17:54.727Z,69.47
2018-08-28T00:20:24.403Z,68.52
2018-08-28T00:22:54.066Z,69.48
2018-08-28T00:25:23.766Z,68.48
2018-08-28T00:27:53.404Z,68.02
2018-08-28T00:30:23.071Z,66.78
2018-08-28T00:32:52.673Z,66.69
2018-08-28T00:35:22.303Z,69.17
2018-08-28T00:37:51.925Z,67.56
2018-08-28T00:40:21.550Z,67.63
2018-08-28T00:42:51.218Z,69.71
2018-08-28T00:45:20.838Z,69.04
2018-08-28T00:47:50.465Z,67.17
2018-08-28T00:50:20.103Z,68.19
2018-08-28T00:52:49.772Z,67.38
2018-08-28T00:55:19.472Z,67.05
2018-08-28T00:57:49.118Z,67.51
2018-08-28T01:00:18.913Z,67.48
2018-08-28T01:02:48.515Z,67.44
2018-08-28T01:05:18.190Z,67.11
2018-08-28T01:07:47.823Z,66.79
2018-08-28T01:10:17.443Z,66.08
2018-08-28T01:12:47.083Z,68.93
2018-08-28T01:15:16.711Z,68.47
2018-08-28T01:17:46.339Z,67.94
2018-08-28T01:20:15.946Z,68.39
2018-08-28T01:22:45.594Z,67.25
2018-08-28T01:25:15.266Z,67.03
2018-08-28T01:27:44.955Z,66.08
2018-08-28T01:30:14.602Z,66.54
2018-08-28T01:32:44.222Z,67.23
2018-08-28T01:35:13.880Z,66.12
2018-08-28T01:37:43.475Z,66.08
2018-08-28T01:40:13.106Z,66.21
2018-08-28T01:42:42.693Z,66.83
2018-08-28T01:45:12.992Z,67.22
2018-08-28T01:47:42.675Z,68.64
2018-08-28T01:50:12.267Z,69.95
2018-08-28T01:52:41.916Z,70.51
2018-08-28T01:55:11.909Z,68.99
2018-08-28T01:57:41.571Z,69.40
2018-08-28T02:00:11.794Z,68.25
2018-08-28T02:02:41.503Z,67.65
2018-08-28T02:05:10.775Z,66.82
2018-08-28T02:07:40.389Z,66.92
2018-08-28T02:10:14.215Z,66.35
2018-08-28T02:12:44.278Z,67.66
2018-08-28T02:15:13.927Z,67.27
2018-08-28T02:17:43.563Z,66.51
2018-08-28T02:20:13.161Z,66.88
2018-08-28T02:22:42.781Z,66.13
2018-08-28T02:25:12.408Z,69.10
2018-08-28T02:27:42.011Z,68.26
2018-08-28T02:30:11.642Z,67.37
2018-08-28T02:32:41.252Z,68.13
2018-08-28T02:35:10.885Z,69.91
2018-08-28T02:37:40.483Z,69.46
2018-08-28T02:40:10.269Z,68.11
2018-08-28T02:42:39.892Z,67.08
2018-08-28T02:45:09.618Z,67.28
2018-08-28T02:47:39.246Z,66.94
2018-08-28T02:50:08.897Z,66.26
2018-08-28T02:52:38.506Z,67.05
2018-08-28T02:55:08.163Z,66.82
2018-08-28T02:57:37.858Z,67.05
2018-08-28T03:00:07.526Z,66.42
2018-08-28T03:02:37.136Z,66.33
2018-08-28T03:05:06.772Z,66.70
2018-08-28T03:07:36.382Z,67.33
2018-08-28T03:10:06.059Z,67.50
2018-08-28T03:12:35.657Z,67.94
2018-08-28T03:15:05.374Z,68.42
2018-08-28T03:17:35.011Z,70.99
2018-08-28T03:20:04.637Z,69.47
2018-08-28T03:22:34.250Z,69.17
2018-08-28T03:25:03.912Z,68.47
2018-08-28T03:27:33.531Z,68.71
2018-08-28T03:30:03.135Z,70.30
2018-08-28T03:32:32.779Z,69.16
2018-08-28T03:35:02.419Z,68.24
2018-08-28T03:37:32.093Z,69.02
2018-08-28T03:40:01.767Z,69.14
2018-08-28T03:42:31.402Z,68.27
2018-08-28T03:45:01.044Z,67.81
2018-08-28T03:47:30.638Z,67.61
2018-08-28T03:50:00.263Z,69.24
2018-08-28T03:52:29.939Z,69.38
2018-08-28T03:54:59.619Z,70.33
2018-08-28T03:57:29.187Z,68.17
2018-08-28T03:59:58.779Z,68.40
2018-08-28T04:02:28.395Z,68.42
2018-08-28T04:04:58.042Z,69.03
2018-08-28T04:07:27.724Z,67.28
2018-08-28T04:09:57.360Z,71.73
2018-08-28T04:12:26.967Z,71.68
2018-08-28T04:14:56.606Z,71.62
2018-08-28T04:17:26.203Z,71.83
2018-08-28T04:19:55.843Z,71.01
2018-08-28T04:22:25.459Z,69.66
2018-08-28T04:24:55.058Z,70.09
2018-08-28T04:27:24.719Z,69.15
2018-08-28T04:29:54.346Z,70.14
2018-08-28T04:32:48.416Z,70.69
2018-08-28T04:35:18.115Z,72.43
2018-08-28T04:37:47.696Z,69.92
2018-08-28T04:40:17.453Z,69.18
2018-08-28T04:42:47.118Z,71.92
2018-08-28T04:45:17.658Z,73.02
2018-08-28T04:47:47.270Z,73.92
2018-08-28T04:50:16.911Z,72.13
2018-08-28T04:52:46.522Z,72.66
2018-08-28T04:55:16.243Z,70.64
2018-08-28T04:57:45.899Z,71.42
2018-08-28T05:00:16.099Z,70.91
2018-08-28T05:02:45.762Z,71.45
2018-08-28T05:05:15.424Z,70.65
2018-08-28T05:07:45.283Z,71.37
2018-08-28T05:10:14.882Z,71.12
2018-08-28T05:12:44.486Z,70.09
2018-08-28T05:15:14.122Z,69.25
2018-08-28T05:17:43.767Z,69.17
2018-08-28T05:20:13.355Z,70.03
2018-08-28T05:22:42.969Z,69.70
2018-08-28T05:25:12.606Z,68.74
2018-08-28T05:27:42.223Z,69.75
2018-08-28T05:30:11.990Z,70.91
2018-08-28T05:32:41.642Z,69.74
2018-08-28T05:35:11.297Z,70.67
2018-08-28T05:37:40.935Z,70.10
2018-08-28T05:40:10.534Z,70.13
2018-08-28T05:42:40.187Z,70.70
2018-08-28T05:45:09.834Z,71.18
2018-08-28T05:47:39.477Z,70.29
2018-08-28T05:50:09.175Z,71.86
2018-08-28T05:52:38.826Z,71.10
2018-08-28T05:55:08.607Z,70.74
2018-08-28T05:57:38.298Z,70.14
2018-08-28T06:00:08.048Z,70.13
2018-08-28T06:02:37.697Z,70.68
2018-08-28T06:05:07.387Z,69.78
2018-08-28T06:07:37.077Z,69.74
2018-08-28T06:10:06.747Z,70.05
2018-08-28T06:12:36.387Z,70.90
2018-08-28T06:15:06.245Z,72.50
2018-08-28T06:17:35.894Z,72.57
2018-08-28T06:20:05.915Z,72.18
2018-08-28T06:22:35.539Z,71.29
2018-08-28T06:25:05.419Z,71.08
2018-08-28T06:27:35.043Z,70.97
2018-08-28T06:30:04.705Z,71.20
2018-08-28T06:32:34.311Z,71.12
2018-08-28T06:35:03.961Z,71.14
2018-08-28T06:37:33.575Z,71.51
2018-08-28T06:40:03.196Z,71.01
2018-08-28T06:42:32.770Z,70.81
2018-08-28T06:45:02.391Z,70.92
2018-08-28T06:47:32.004Z,70.74
2018-08-28T06:50:01.649Z,70.10
2018-08-28T06:52:31.279Z,71.10
2018-08-28T06:55:00.902Z,71.20
2018-08-28T06:57:30.866Z,70.22
2018-08-28T07:00:00.551Z,70.71
2018-08-28T07:02:30.306Z,70.46
2018-08-28T07:05:00.009Z,70.37
2018-08-28T07:07:29.649Z,72.38
2018-08-28T07:09:59.285Z,72.31
2018-08-28T07:12:28.962Z,72.07
2018-08-28T07:14:58.619Z,71.00
2018-08-28T07:17:28.205Z,72.04
2018-08-28T07:19:57.811Z,71.92
2018-08-28T07:22:28.039Z,72.12
2018-08-28T07:24:58.146Z,73.05
2018-08-28T07:27:27.799Z,72.25
2018-08-28T07:29:57.462Z,71.80
2018-08-28T07:32:27.130Z,71.11
2018-08-28T07:34:56.738Z,71.40
2018-08-28T07:37:26.414Z,71.50
2018-08-28T07:39:56.030Z,72.00
2018-08-28T07:42:25.667Z,71.47
2018-08-28T07:44:55.279Z,71.72
2018-08-28T07:47:24.907Z,70.36
2018-08-28T07:49:54.489Z,70.77
2018-08-28T07:52:24.145Z,69.94
2018-08-28T07:54:53.783Z,70.80
2018-08-28T07:57:23.422Z,70.62
2018-08-28T07:59:53.242Z,69.47
2018-08-28T08:02:22.858Z,69.20
2018-08-28T08:04:52.525Z,69.44
2018-08-28T08:07:22.230Z,69.86
2018-08-28T08:09:51.850Z,69.67
2018-08-28T08:12:21.483Z,68.99
2018-08-28T08:14:51.091Z,68.75
2018-08-28T08:17:20.714Z,68.07
2018-08-28T08:19:50.363Z,68.35
2018-08-28T08:22:19.967Z,67.98
2018-08-28T08:24:49.658Z,65.84
2018-08-28T08:27:19.470Z,66.06
2018-08-28T08:29:49.224Z,65.14
2018-08-28T08:32:18.815Z,64.43
2018-08-28T08:34:48.442Z,64.36
2018-08-28T08:37:18.100Z,65.98
2018-08-28T08:39:47.728Z,64.48
2018-08-28T08:42:17.294Z,64.86
2018-08-28T08:44:46.939Z,63.03
2018-08-28T08:47:16.514Z,61.30
2018-08-28T08:49:46.101Z,59.04
2018-08-28T08:52:15.674Z,59.69
2018-08-28T08:54:45.352Z,59.46
2018-08-28T08:57:15.010Z,59.18
2018-08-28T08:59:44.634Z,59.42
2018-08-28T09:02:14.299Z,58.16
2018-08-28T09:04:43.913Z,60.66
2018-08-28T09:07:13.843Z,57.92
2018-08-28T09:09:43.476Z,58.34
2018-08-28T09:12:13.198Z,59.10
2018-08-28T09:14:42.853Z,59.59
2018-08-28T09:17:12.551Z,57.94
2018-08-28T09:19:42.528Z,57.12
2018-08-28T09:22:12.667Z,57.76
2018-08-28T09:24:42.387Z,57.13
2018-08-28T09:27:12.426Z,56.41
2018-08-28T09:29:42.055Z,55.17
2018-08-28T09:32:11.842Z,56.29
2018-08-28T09:34:41.439Z,54.63
2018-08-28T09:37:11.071Z,54.90
2018-08-28T09:39:41.278Z,55.38
2018-08-28T09:42:10.880Z,54.73
2018-08-28T09:44:40.543Z,55.00
2018-08-28T09:47:10.157Z,55.13
2018-08-28T09:49:39.763Z,55.03
2018-08-28T09:52:16.064Z,54.25
2018-08-28T09:54:45.735Z,55.15
2018-08-28T09:57:15.359Z,53.53
2018-08-28T09:59:45.037Z,53.28
2018-08-28T10:02:14.744Z,52.87
2018-08-28T10:04:44.489Z,54.37
2018-08-28T10:07:14.103Z,54.64
2018-08-28T10:09:43.711Z,54.33
2018-08-28T10:12:13.383Z,54.40
2018-08-28T10:14:43.005Z,54.13
2018-08-28T10:17:12.637Z,54.09
2018-08-28T10:22:10.886Z,52.60
2018-08-28T10:24:40.596Z,53.04
2018-08-28T10:27:10.206Z,54.44
2018-08-28T10:29:39.833Z,55.75
2018-08-28T10:32:09.453Z,53.78
2018-08-28T10:34:39.083Z,55.00
2018-08-28T10:37:08.710Z,53.75
2018-08-28T10:39:38.310Z,53.94
2018-08-28T10:42:07.968Z,53.17
2018-08-28T10:44:37.576Z,53.53
2018-08-28T10:47:07.794Z,53.37
2018-08-28T10:49:37.424Z,52.87
2018-08-28T10:52:07.194Z,54.19
2018-08-28T10:54:36.800Z,54.62
2018-08-28T10:57:06.441Z,53.92
2018-08-28T10:59:36.041Z,53.44
2018-08-28T11:02:05.662Z,53.87
2018-08-28T11:04:35.384Z,55.09
2018-08-28T11:07:04.996Z,54.07
2018-08-28T11:09:34.604Z,54.18
2018-08-28T11:12:04.234Z,52.72
2018-08-28T11:14:33.855Z,52.20
2018-08-28T11:17:03.824Z,53.55
2018-08-28T11:19:33.862Z,52.42
2018-08-28T11:22:03.446Z,50.79
2018-08-28T11:24:33.075Z,52.25
2018-08-28T11:27:02.698Z,50.72
2018-08-28T11:29:32.315Z,51.27
2018-08-28T11:32:01.966Z,52.33
2018-08-28T11:34:31.591Z,50.97
2018-08-28T11:37:03.228Z,49.17
2018-08-28T11:39:32.881Z,50.79
2018-08-28T11:42:02.475Z,51.20
2018-08-28T11:44:32.082Z,50.43
2018-08-28T11:47:01.732Z,50.25
2018-08-28T11:49:31.388Z,48.78
2018-08-28T11:52:00.970Z,49.32
2018-08-28T11:54:30.602Z,50.91
2018-08-28T11:57:00.173Z,50.30
2018-08-28T11:59:29.791Z,49.40
2018-08-28T12:01:59.430Z,49.36
2018-08-28T12:04:29.070Z,50.01
2018-08-28T12:06:58.697Z,49.96
2018-08-28T12:09:28.391Z,48.89
2018-08-28T12:12:28.470Z,49.62
2018-08-28T12:14:58.955Z,49.91
2018-08-28T12:17:29.229Z,47.87
2018-08-28T12:19:59.369Z,49.37
2018-08-28T12:22:30.073Z,47.10
2018-08-28T12:25:00.149Z,49.25
2018-08-28T12:27:30.277Z,47.70
2018-08-28T12:30:00.507Z,47.23
2018-08-28T12:32:30.680Z,47.57
2018-08-28T12:35:01.679Z,47.72
2018-08-28T12:37:31.613Z,47.92
2018-08-28T12:40:01.552Z,48.21
2018-08-28T12:42:31.982Z,46.74
2018-08-28T12:45:02.343Z,47.64
2018-08-28T12:47:32.468Z,48.40
2018-08-28T12:50:02.561Z,48.06
2018-08-28T12:52:32.611Z,47.83
2018-08-28T12:55:02.690Z,46.38
2018-08-28T12:57:33.945Z,46.09
2018-08-28T13:00:03.915Z,46.88
2018-08-28T13:02:33.936Z,46.31
2018-08-28T13:05:04.211Z,45.57
2018-08-28T13:07:34.527Z,45.32
2018-08-28T13:10:04.774Z,46.21
2018-08-28T13:12:34.938Z,45.91
2018-08-28T13:15:05.334Z,46.49
2018-08-28T13:17:35.347Z,46.09
2018-08-28T13:20:05.713Z,46.45
2018-08-28T13:22:35.933Z,45.48
2018-08-28T13:25:07.252Z,45.03
2018-08-28T13:27:37.428Z,44.47
2018-08-28T13:30:07.856Z,45.44
2018-08-28T13:32:38.139Z,44.72
2018-08-28T13:35:08.477Z,45.11
2018-08-28T13:37:42.572Z,44.33
2018-08-28T13:40:13.332Z,43.28
2018-08-28T13:42:43.576Z,44.44
2018-08-28T13:45:13.943Z,43.74
2018-08-28T13:47:44.027Z,43.27
2018-08-28T13:50:14.417Z,43.66
2018-08-28T13:52:44.633Z,43.27
2018-08-28T13:55:15.086Z,44.37
2018-08-28T13:57:45.357Z,44.43
2018-08-28T14:00:15.483Z,43.67
2018-08-28T14:02:45.524Z,44.92
2018-08-28T14:05:15.595Z,43.51
2018-08-28T14:07:45.344Z,43.64
2018-08-28T14:10:15.258Z,44.08
2018-08-28T14:12:45.024Z,43.84
2018-08-28T14:15:14.774Z,44.27
2018-08-28T14:17:44.459Z,42.00
2018-08-28T14:20:14.115Z,41.46
2018-08-28T14:22:43.899Z,43.43
2018-08-28T14:25:13.499Z,43.02
2018-08-28T14:27:43.169Z,41.89
2018-08-28T14:30:12.758Z,41.98
2018-08-28T14:32:42.486Z,42.57
2018-08-28T14:35:12.138Z,40.85
2018-08-28T14:37:41.778Z,43.17
2018-08-28T14:40:11.424Z,41.99
2018-08-28T14:42:41.256Z,41.15
2018-08-28T14:45:10.804Z,40.99
2018-08-28T14:47:40.452Z,42.98
2018-08-28T14:50:10.219Z,41.62
2018-08-28T14:52:40.888Z,42.58
2018-08-28T14:55:10.547Z,42.22
2018-08-28T14:57:40.132Z,42.04
2018-08-28T15:00:09.835Z,40.84
2018-08-28T15:02:39.450Z,40.04
2018-08-28T15:05:09.114Z,42.16
2018-08-28T15:07:38.770Z,41.21
2018-08-28T15:10:08.415Z,41.36
2018-08-28T15:12:38.043Z,41.59
2018-08-28T15:15:07.938Z,40.82
2018-08-28T15:17:39.966Z,40.07
2018-08-28T15:20:09.935Z,41.33
2018-08-28T15:22:39.718Z,41.28
2018-08-28T15:25:09.405Z,40.74
2018-08-28T15:27:39.129Z,40.17
2018-08-28T15:30:08.774Z,40.49
2018-08-28T15:32:38.427Z,40.41
2018-08-28T15:35:08.255Z,40.16
2018-08-28T15:37:37.919Z,40.06
2018-08-28T15:40:07.546Z,41.24
2018-08-28T15:42:37.138Z,40.43
2018-08-28T15:45:06.883Z,40.45
2018-08-28T15:47:36.545Z,41.48
2018-08-28T15:50:06.313Z,42.27
2018-08-28T15:52:35.916Z,41.34
2018-08-28T15:55:06.949Z,41.96
2018-08-28T15:57:36.639Z,41.88
2018-08-28T16:00:07.214Z,40.79
2018-08-28T16:02:36.827Z,41.94
2018-08-28T16:05:06.706Z,39.83
2018-08-28T16:07:36.349Z,40.20
2018-08-28T16:10:06.631Z,40.98
2018-08-28T16:12:36.867Z,40.82
2018-08-28T16:15:06.850Z,42.33
2018-08-28T16:17:36.473Z,42.41
2018-08-28T16:20:06.278Z,42.23
2018-08-28T16:22:46.686Z,42.39
2018-08-28T16:25:39.895Z,42.00
2018-08-28T16:28:09.563Z,42.39
2018-08-28T16:30:41.394Z,41.80
2018-08-28T16:33:11.123Z,41.83
2018-08-28T16:35:41.035Z,42.02
2018-08-28T16:38:10.722Z,42.42
2018-08-28T16:40:40.475Z,43.58
2018-08-28T16:43:10.203Z,43.36
2018-08-28T16:45:39.914Z,43.72
2018-08-28T16:48:09.779Z,42.72
2018-08-28T16:50:46.774Z,43.11
2018-08-28T16:53:20.329Z,43.45
2018-08-28T16:55:50.077Z,43.58
2018-08-28T16:58:23.512Z,43.90
2018-08-28T17:00:53.258Z,43.73
2018-08-28T17:03:22.843Z,43.53
2018-08-28T17:05:52.479Z,42.95
2018-08-28T17:08:23.161Z,43.21
2018-08-28T17:10:52.772Z,43.93
2018-08-28T17:13:23.872Z,44.01
2018-08-28T17:15:55.577Z,44.63
2018-08-28T17:18:25.211Z,44.52
2018-08-28T17:20:54.870Z,44.62
2018-08-28T17:23:24.567Z,44.51
2018-08-28T17:25:54.220Z,45.14
2018-08-28T17:28:23.898Z,45.15
2018-08-28T17:30:53.614Z,45.65
2018-08-28T17:33:23.335Z,45.73
2018-08-28T17:35:53.146Z,45.98
2018-08-28T17:38:22.782Z,45.54
2018-08-28T17:40:52.379Z,45.87
2018-08-28T17:43:22.050Z,46.36
2018-08-28T17:45:51.744Z,45.68
2018-08-28T17:48:21.466Z,46.46
2018-08-28T17:50:51.093Z,47.03
2018-08-28T17:53:20.710Z,47.02
2018-08-28T17:55:56.212Z,47.31
2018-08-28T17:58:25.819Z,46.65
2018-08-28T18:00:55.520Z,46.92
2018-08-28T18:03:25.153Z,47.33
2018-08-28T18:05:54.765Z,47.73
2018-08-28T18:08:24.390Z,48.12
2018-08-28T18:10:54.007Z,48.46
2018-08-28T18:13:25.704Z,48.00
2018-08-28T18:15:55.322Z,47.98
2018-08-28T18:18:25.067Z,48.31
2018-08-28T18:20:54.836Z,49.06
2018-08-28T18:23:24.539Z,49.08
2018-08-28T18:25:54.295Z,49.72
2018-08-28T18:28:23.938Z,49.47
2018-08-28T18:30:56.064Z,50.04
2018-08-28T18:33:30.286Z,51.03
2018-08-28T18:36:00.070Z,51.65
2018-08-28T18:38:29.631Z,51.32
2018-08-28T18:41:01.491Z,51.83
2018-08-28T18:43:48.764Z,51.04
2018-08-28T18:46:19.538Z,51.64
2018-08-28T18:48:49.268Z,50.95
2018-08-28T18:51:19.427Z,51.44
2018-08-28T18:53:49.503Z,52.50
2018-08-28T18:56:19.133Z,53.19
2018-08-28T18:58:48.755Z,52.99
2018-08-28T19:01:18.435Z,52.72
2018-08-28T19:03:48.182Z,52.55
2018-08-28T19:06:24.576Z,52.54
2018-08-28T19:08:54.380Z,53.04
2018-08-28T19:11:24.057Z,52.10
2018-08-28T19:13:53.849Z,52.61
2018-08-28T19:16:23.499Z,51.68
2018-08-28T19:18:53.146Z,52.58
2018-08-28T19:21:22.794Z,52.89
2018-08-28T19:23:52.437Z,54.26
2018-08-28T19:26:22.058Z,52.97
2018-08-28T19:28:51.690Z,54.06
2018-08-28T19:31:21.326Z,54.86
2018-08-28T19:33:50.949Z,55.60
2018-08-28T19:36:20.600Z,55.85
2018-08-28T19:38:50.335Z,56.85
2018-08-28T19:41:20.131Z,57.65
2018-08-28T19:43:49.895Z,58.20
2018-08-28T19:46:19.556Z,57.53
2018-08-28T19:48:49.299Z,57.71
2018-08-28T19:51:19.000Z,57.76
2018-08-28T19:53:48.672Z,57.42
2018-08-28T19:56:18.380Z,57.46
2018-08-28T19:58:48.022Z,58.34
2018-08-28T20:01:17.629Z,58.69
2018-08-28T20:03:47.348Z,59.28
2018-08-28T20:06:17.000Z,60.03
2018-08-28T20:08:46.642Z,59.25
2018-08-28T20:11:16.274Z,58.63
2018-08-28T20:13:45.894Z,58.92
2018-08-28T20:16:15.795Z,57.33
2018-08-28T20:18:45.408Z,59.43
2018-08-28T20:21:15.043Z,58.39
2018-08-28T20:23:44.684Z,59.04
2018-08-28T20:26:14.337Z,58.27
2018-08-28T20:28:43.980Z,60.75
2018-08-28T20:31:13.634Z,59.66
2018-08-28T20:33:43.276Z,60.04
2018-08-28T20:36:12.907Z,60.00
2018-08-28T20:38:42.518Z,60.81
2018-08-28T20:41:12.121Z,61.41
2018-08-28T20:43:41.955Z,61.15
2018-08-28T20:46:11.612Z,61.59
2018-08-28T20:48:41.303Z,62.23
2018-08-28T20:51:11.037Z,62.53
2018-08-28T20:53:40.704Z,62.20
2018-08-28T20:56:11.047Z,61.99
2018-08-28T20:58:40.769Z,61.22
2018-08-28T21:01:10.467Z,62.26
2018-08-28T21:03:40.102Z,62.61
2018-08-28T21:06:09.768Z,63.40
2018-08-28T21:08:39.443Z,63.05
2018-08-28T21:11:09.099Z,63.78
2018-08-28T21:13:38.734Z,64.10
2018-08-28T21:16:08.543Z,62.15
2018-08-28T21:18:38.183Z,62.06
2018-08-28T21:21:07.524Z,61.58
2018-08-28T21:23:37.127Z,62.53
2018-08-28T21:26:06.904Z,62.29
2018-08-28T21:28:37.113Z,63.39
2018-08-28T21:31:08.862Z,62.38
2018-08-28T21:33:38.514Z,62.85
2018-08-28T21:36:08.298Z,63.35
2018-08-28T21:38:37.928Z,63.34
2018-08-28T21:41:07.565Z,62.95
2018-08-28T21:43:37.552Z,62.18
2018-08-28T21:46:07.944Z,61.54
2018-08-28T21:48:37.595Z,60.47
2018-08-28T21:51:07.270Z,60.87
2018-08-28T21:53:36.964Z,61.73
2018-08-28T21:56:06.683Z,61.29
2018-08-28T21:58:36.391Z,62.35
2018-08-28T22:01:11.833Z,62.34
2018-08-28T22:03:42.769Z,64.30
2018-08-28T22:06:18.679Z,65.46
2018-08-28T22:08:48.270Z,63.65
2018-08-28T22:11:17.950Z,63.25
2018-08-28T22:13:47.607Z,62.91
2018-08-28T22:16:17.246Z,64.17
2018-08-28T22:18:46.957Z,62.75
2018-08-28T22:21:16.646Z,64.33
2018-08-28T22:23:46.266Z,66.40
2018-08-28T22:26:16.520Z,66.65
2018-08-28T22:28:46.127Z,67.04
2018-08-28T22:31:15.840Z,65.68
2018-08-28T22:33:45.525Z,65.96
2018-08-28T22:36:15.221Z,67.68
2018-08-28T22:38:44.878Z,67.11
2018-08-28T22:41:14.533Z,66.62
2018-08-28T22:43:44.205Z,66.12
2018-08-28T22:46:13.862Z,66.86
2018-08-28T22:48:43.511Z,65.97
2018-08-28T22:51:13.243Z,66.15
2018-08-28T22:53:42.862Z,66.45
2018-08-28T22:56:12.496Z,65.84
2018-08-28T22:58:42.103Z,68.09
2018-08-28T23:01:11.761Z,68.51
2018-08-28T23:03:41.564Z,69.61
2018-08-28T23:06:11.181Z,68.41
2018-08-28T23:08:40.820Z,66.68
2018-08-28T23:11:10.506Z,66.31
2018-08-28T23:13:40.130Z,65.83
2018-08-28T23:16:09.777Z,65.37
2018-08-28T23:18:39.478Z,64.18
2018-08-28T23:21:09.114Z,64.33
2018-08-28T23:23:38.710Z,67.55
2018-08-28T23:26:08.343Z,69.16
2018-08-28T23:28:37.938Z,66.43
2018-08-28T23:31:07.566Z,66.32
2018-08-28T23:33:37.266Z,65.38
2018-08-28T23:36:06.944Z,64.99
2018-08-28T23:38:36.576Z,64.88
2018-08-28T23:41:06.820Z,67.99
2018-08-28T23:43:36.434Z,67.49
2018-08-28T23:46:06.102Z,68.00
2018-08-28T23:48:35.709Z,67.52
2018-08-28T23:51:05.483Z,69.29
2018-08-28T23:53:35.119Z,68.01
2018-08-28T23:56:04.764Z,67.29
2018-08-28T23:58:34.410Z,67.16
